Airfield :
LOGIN :

Register | Disclaimer

   EN    FR    IT 

 










Legend :    VFR   Marginal VFR   IFR   Intensive IFR   Very Intensive IFR
Visi :
Ceiling :
>= 8 km
>= 3000ft
5 to 8 km
1000 to 3000 ft
1500m to 5 km
500 to 1000 ft
800 to 1500m
200 to 500 ft
< 800m
< 200 ft
Symbols :   Thunderstorms  Fog  Heavy snow  Heavy precipitations  Wind > 20 kt
SIGMETs :     Misc.  Thunderstorms  Icing  Turbulence  Mountain Waves  Volcanic Ashes







- Airport Elevation : 242 ft
- IATA code : DUB


EIDW - Dublin

CURRENT METAR :
  • 211500Z 26007KT 190V320 9999 FEW025 SCT090 BKN180 19/12 Q1016 NOSIG

EXPIRED METARs :
  • 211430Z 28008KT 240V330 9999 FEW025 BKN090 19/12 Q1016 NOSIG
  • 211400Z 28010KT 250V320 9999 FEW013 SCT025 BKN090 18/12 Q1016 NOSIG
  • 211330Z 28010KT 240V320 9999 FEW013 SCT024 BKN140 18/12 Q1016 NOSIG
  • 211300Z 27009KT 230V300 9999 FEW013 BKN023 BKN140 18/12 Q1016 NOSIG
  • 211230Z 28009KT 260V320 9999 FEW013 BKN023 BKN140 18/12 Q1016 NOSIG

TAF AMD TAF EIDW
Valid from the 21 at 15:00 until the 22 at 12:00 UTC


211500Z 2115/2212 29008KT 9999 BKN020
TEMPO 2116/2120 15008KT
PROB30
TEMPO 2203/2209 BKN012
BECMG 2205/2208 26010KT
No reported NOTAMs for that airfield.



MET'MAP, your aeronautical weather chart ! - Copyright ORBIFLY December 2007 - Disclaimer

ORBIFLY MET'MAP TEAM :

Programming & Development : Alexandra Zaïnal
Concept & Development : Baudouin d'Aumeries
Co-Development & Prog : Marc-Olivier Méhu
Technical & hardware support : Manuel Goepfert

Contact : metmap@orbifly.com




SOURCES & CREDITS :

   NOAA